sensor_id;sensor_type;location;lat;lon;timestamp;P1;durP1;ratioP1;P2;durP2;ratioP2
12151;SDS011;6139;51.274;7.128;2023-02-28T00:00:28;3.20;;;2.90;;
12151;SDS011;6139;51.274;7.128;2023-02-28T00:01:29;4.07;;;3.00;;
12151;SDS011;6139;51.274;7.128;2023-02-28T00:02:31;6.13;;;3.57;;
12151;SDS011;6139;51.274;7.128;2023-02-28T00:03:32;4.80;;;3.17;;
12151;SDS011;6139;51.274;7.128;2023-02-28T00:04:35;6.27;;;3.20;;
12151;SDS011;6139;51.274;7.128;2023-02-28T00:05:36;4.13;;;3.20;;
12151;SDS011;6139;51.274;7.128;2023-02-28T00:06:39;4.30;;;3.40;;
12151;SDS011;6139;51.274;7.128;2023-02-28T00:07:42;8.13;;;3.10;;
12151;SDS011;6139;51.274;7.128;2023-02-28T00:08:44;4.50;;;3.27;;
12151;SDS011;6139;51.274;7.128;2023-02-28T00:09:45;4.93;;;2.90;;
12151;SDS011;6139;51.274;7.128;2023-02-28T00:10:47;5.30;;;2.93;;
12151;SDS011;6139;51.274;7.128;2023-02-28T00:11:48;3.67;;;3.30;;
12151;SDS011;6139;51.274;7.128;2023-02-28T00:12:50;5.50;;;3.30;;
12151;SDS011;6139;51.274;7.128;2023-02-28T00:13:51;3.73;;;3.30;;
12151;SDS011;6139;51.274;7.128;2023-02-28T00:14:53;5.47;;;3.37;;
12151;SDS011;6139;51.274;7.128;2023-02-28T00:16:00;5.00;;;3.20;;
12151;SDS011;6139;51.274;7.128;2023-02-28T00:17:03;3.57;;;2.80;;
12151;SDS011;6139;51.274;7.128;2023-02-28T00:18:05;4.70;;;3.10;;
12151;SDS011;6139;51.274;7.128;2023-02-28T00:19:06;4.33;;;3.20;;
12151;SDS011;6139;51.274;7.128;2023-02-28T00:20:09;3.70;;;3.30;;
12151;SDS011;6139;51.274;7.128;2023-02-28T00:21:11;6.40;;;2.93;;
12151;SDS011;6139;51.274;7.128;2023-02-28T00:22:15;7.93;;;3.47;;
12151;SDS011;6139;51.274;7.128;2023-02-28T00:23:16;7.50;;;4.20;;
12151;SDS011;6139;51.274;7.128;2023-02-28T00:24:18;4.80;;;3.30;;
12151;SDS011;6139;51.274;7.128;2023-02-28T00:25:20;5.43;;;3.40;;
12151;SDS011;6139;51.274;7.128;2023-02-28T00:26:24;3.63;;;2.77;;
12151;SDS011;6139;51.274;7.128;2023-02-28T00:27:25;3.90;;;3.10;;
12151;SDS011;6139;51.274;7.128;2023-02-28T00:28:27;5.13;;;2.97;;
12151;SDS011;6139;51.274;7.128;2023-02-28T00:29:27;4.60;;;3.40;;
12151;SDS011;6139;51.274;7.128;2023-02-28T00:30:29;3.80;;;3.10;;
12151;SDS011;6139;51.274;7.128;2023-02-28T00:31:30;6.37;;;3.10;;
12151;SDS011;6139;51.274;7.128;2023-02-28T00:32:32;5.37;;;3.63;;
12151;SDS011;6139;51.274;7.128;2023-02-28T00:33:35;4.97;;;3.47;;
12151;SDS011;6139;51.274;7.128;2023-02-28T00:34:37;4.53;;;3.47;;
12151;SDS011;6139;51.274;7.128;2023-02-28T00:35:38;3.77;;;3.10;;
12151;SDS011;6139;51.274;7.128;2023-02-28T00:36:43;3.90;;;3.17;;
12151;SDS011;6139;51.274;7.128;2023-02-28T00:37:47;5.20;;;3.10;;
12151;SDS011;6139;51.274;7.128;2023-02-28T00:38:50;5.97;;;3.10;;
12151;SDS011;6139;51.274;7.128;2023-02-28T00:39:51;4.73;;;3.07;;
12151;SDS011;6139;51.274;7.128;2023-02-28T00:40:53;5.53;;;3.30;;
12151;SDS011;6139;51.274;7.128;2023-02-28T00:41:54;6.07;;;3.80;;
12151;SDS011;6139;51.274;7.128;2023-02-28T00:42:55;4.57;;;2.80;;
12151;SDS011;6139;51.274;7.128;2023-02-28T00:43:56;3.60;;;3.20;;
12151;SDS011;6139;51.274;7.128;2023-02-28T00:44:58;3.50;;;3.07;;
12151;SDS011;6139;51.274;7.128;2023-02-28T00:46:00;5.63;;;3.73;;
12151;SDS011;6139;51.274;7.128;2023-02-28T00:47:02;4.83;;;3.40;;
12151;SDS011;6139;51.274;7.128;2023-02-28T00:48:03;4.33;;;3.30;;
12151;SDS011;6139;51.274;7.128;2023-02-28T00:49:06;4.83;;;3.27;;
12151;SDS011;6139;51.274;7.128;2023-02-28T00:50:10;4.07;;;3.50;;
12151;SDS011;6139;51.274;7.128;2023-02-28T00:51:12;5.93;;;3.63;;
12151;SDS011;6139;51.274;7.128;2023-02-28T00:52:13;5.30;;;3.60;;
12151;SDS011;6139;51.274;7.128;2023-02-28T00:53:16;5.50;;;3.80;;
12151;SDS011;6139;51.274;7.128;2023-02-28T00:54:17;4.23;;;3.60;;
12151;SDS011;6139;51.274;7.128;2023-02-28T00:55:21;5.03;;;3.60;;
12151;SDS011;6139;51.274;7.128;2023-02-28T00:56:23;6.43;;;3.40;;
12151;SDS011;6139;51.274;7.128;2023-02-28T00:57:24;3.83;;;3.20;;
12151;SDS011;6139;51.274;7.128;2023-02-28T00:58:26;6.50;;;3.80;;
12151;SDS011;6139;51.274;7.128;2023-02-28T00:59:27;6.90;;;3.93;;
12151;SDS011;6139;51.274;7.128;2023-02-28T01:00:29;7.60;;;3.60;;
12151;SDS011;6139;51.274;7.128;2023-02-28T01:01:30;5.17;;;3.60;;
12151;SDS011;6139;51.274;7.128;2023-02-28T01:02:32;6.30;;;3.80;;
12151;SDS011;6139;51.274;7.128;2023-02-28T01:03:33;6.00;;;3.70;;
12151;SDS011;6139;51.274;7.128;2023-02-28T01:04:35;5.37;;;3.43;;
12151;SDS011;6139;51.274;7.128;2023-02-28T01:05:36;5.47;;;3.57;;
12151;SDS011;6139;51.274;7.128;2023-02-28T01:06:38;8.40;;;4.00;;
12151;SDS011;6139;51.274;7.128;2023-02-28T01:07:39;7.37;;;3.80;;
12151;SDS011;6139;51.274;7.128;2023-02-28T01:08:43;4.53;;;3.47;;
12151;SDS011;6139;51.274;7.128;2023-02-28T01:09:44;5.73;;;3.73;;
12151;SDS011;6139;51.274;7.128;2023-02-28T01:10:46;5.53;;;3.80;;
12151;SDS011;6139;51.274;7.128;2023-02-28T01:11:47;6.57;;;3.97;;
12151;SDS011;6139;51.274;7.128;2023-02-28T01:12:49;8.50;;;3.93;;
12151;SDS011;6139;51.274;7.128;2023-02-28T01:13:50;4.57;;;3.47;;
12151;SDS011;6139;51.274;7.128;2023-02-28T01:14:52;4.43;;;3.30;;
12151;SDS011;6139;51.274;7.128;2023-02-28T01:15:55;3.60;;;3.20;;
12151;SDS011;6139;51.274;7.128;2023-02-28T01:16:58;4.67;;;3.47;;
12151;SDS011;6139;51.274;7.128;2023-02-28T01:18:01;7.80;;;3.60;;
12151;SDS011;6139;51.274;7.128;2023-02-28T01:19:04;3.57;;;3.27;;
12151;SDS011;6139;51.274;7.128;2023-02-28T01:20:07;4.73;;;3.93;;
12151;SDS011;6139;51.274;7.128;2023-02-28T01:21:10;5.23;;;3.70;;
12151;SDS011;6139;51.274;7.128;2023-02-28T01:22:14;4.93;;;3.23;;
12151;SDS011;6139;51.274;7.128;2023-02-28T01:23:16;4.33;;;3.40;;
12151;SDS011;6139;51.274;7.128;2023-02-28T01:24:19;5.80;;;3.40;;
12151;SDS011;6139;51.274;7.128;2023-02-28T01:25:20;3.43;;;3.13;;
12151;SDS011;6139;51.274;7.128;2023-02-28T01:26:22;4.43;;;3.50;;
12151;SDS011;6139;51.274;7.128;2023-02-28T01:27:23;5.80;;;3.53;;
12151;SDS011;6139;51.274;7.128;2023-02-28T01:28:26;6.17;;;3.63;;
12151;SDS011;6139;51.274;7.128;2023-02-28T01:29:27;4.57;;;3.20;;
12151;SDS011;6139;51.274;7.128;2023-02-28T01:30:29;6.20;;;3.47;;
12151;SDS011;6139;51.274;7.128;2023-02-28T01:31:30;4.33;;;3.20;;
12151;SDS011;6139;51.274;7.128;2023-02-28T01:32:32;6.67;;;3.50;;
12151;SDS011;6139;51.274;7.128;2023-02-28T01:33:33;4.10;;;3.43;;
12151;SDS011;6139;51.274;7.128;2023-02-28T01:34:35;6.37;;;3.53;;
12151;SDS011;6139;51.274;7.128;2023-02-28T01:35:38;4.13;;;3.03;;
12151;SDS011;6139;51.274;7.128;2023-02-28T01:36:39;4.33;;;3.10;;
12151;SDS011;6139;51.274;7.128;2023-02-28T01:37:40;3.43;;;2.87;;
12151;SDS011;6139;51.274;7.128;2023-02-28T01:38:42;4.67;;;3.33;;
12151;SDS011;6139;51.274;7.128;2023-02-28T01:39:45;4.00;;;3.20;;
12151;SDS011;6139;51.274;7.128;2023-02-28T01:40:47;4.30;;;3.30;;
12151;SDS011;6139;51.274;7.128;2023-02-28T01:41:48;4.73;;;3.23;;
12151;SDS011;6139;51.274;7.128;2023-02-28T01:42:50;4.90;;;3.60;;
12151;SDS011;6139;51.274;7.128;2023-02-28T01:43:52;4.57;;;3.43;;
12151;SDS011;6139;51.274;7.128;2023-02-28T01:45:01;5.23;;;3.43;;
12151;SDS011;6139;51.274;7.128;2023-02-28T01:46:15;5.13;;;3.33;;
12151;SDS011;6139;51.274;7.128;2023-02-28T01:47:16;3.70;;;3.30;;
12151;SDS011;6139;51.274;7.128;2023-02-28T01:48:19;6.10;;;3.67;;
12151;SDS011;6139;51.274;7.128;2023-02-28T01:49:26;4.67;;;3.50;;
12151;SDS011;6139;51.274;7.128;2023-02-28T01:50:30;5.07;;;3.10;;
12151;SDS011;6139;51.274;7.128;2023-02-28T01:51:35;4.07;;;3.70;;
12151;SDS011;6139;51.274;7.128;2023-02-28T01:52:45;3.83;;;3.33;;
12151;SDS011;6139;51.274;7.128;2023-02-28T01:53:51;4.57;;;3.10;;
12151;SDS011;6139;51.274;7.128;2023-02-28T01:54:56;3.30;;;3.00;;
12151;SDS011;6139;51.274;7.128;2023-02-28T01:56:01;4.07;;;3.20;;
12151;SDS011;6139;51.274;7.128;2023-02-28T01:57:07;4.10;;;3.17;;
12151;SDS011;6139;51.274;7.128;2023-02-28T01:58:13;4.37;;;2.93;;
12151;SDS011;6139;51.274;7.128;2023-02-28T01:59:19;4.77;;;3.40;;
12151;SDS011;6139;51.274;7.128;2023-02-28T02:00:24;4.17;;;2.90;;
12151;SDS011;6139;51.274;7.128;2023-02-28T02:01:27;4.00;;;2.90;;
12151;SDS011;6139;51.274;7.128;2023-02-28T02:02:30;4.17;;;3.00;;
12151;SDS011;6139;51.274;7.128;2023-02-28T02:03:31;3.37;;;2.80;;
12151;SDS011;6139;51.274;7.128;2023-02-28T02:04:35;4.30;;;3.27;;
12151;SDS011;6139;51.274;7.128;2023-02-28T02:05:40;4.07;;;3.10;;
12151;SDS011;6139;51.274;7.128;2023-02-28T02:06:48;5.87;;;3.13;;
12151;SDS011;6139;51.274;7.128;2023-02-28T02:07:50;4.80;;;3.13;;
12151;SDS011;6139;51.274;7.128;2023-02-28T02:08:55;8.23;;;3.23;;
12151;SDS011;6139;51.274;7.128;2023-02-28T02:10:01;4.80;;;3.00;;
12151;SDS011;6139;51.274;7.128;2023-02-28T02:11:07;5.10;;;3.37;;
12151;SDS011;6139;51.274;7.128;2023-02-28T02:12:14;4.97;;;3.67;;
12151;SDS011;6139;51.274;7.128;2023-02-28T02:13:33;6.73;;;3.60;;
12151;SDS011;6139;51.274;7.128;2023-02-28T02:14:44;5.73;;;3.83;;
12151;SDS011;6139;51.274;7.128;2023-02-28T02:15:57;5.07;;;3.90;;
12151;SDS011;6139;51.274;7.128;2023-02-28T02:17:10;6.47;;;3.87;;
12151;SDS011;6139;51.274;7.128;2023-02-28T02:18:26;6.20;;;3.60;;
12151;SDS011;6139;51.274;7.128;2023-02-28T02:19:38;5.60;;;3.80;;
12151;SDS011;6139;51.274;7.128;2023-02-28T02:22:35;5.20;;;4.20;;
12151;SDS011;6139;51.274;7.128;2023-02-28T02:23:58;5.70;;;3.50;;
12151;SDS011;6139;51.274;7.128;2023-02-28T02:25:23;5.83;;;3.60;;
12151;SDS011;6139;51.274;7.128;2023-02-28T02:26:42;5.97;;;3.53;;
12151;SDS011;6139;51.274;7.128;2023-02-28T02:27:59;4.47;;;3.50;;
12151;SDS011;6139;51.274;7.128;2023-02-28T02:29:33;5.40;;;3.60;;
12151;SDS011;6139;51.274;7.128;2023-02-28T02:31:13;4.40;;;3.60;;
12151;SDS011;6139;51.274;7.128;2023-02-28T02:32:54;6.43;;;3.87;;
12151;SDS011;6139;51.274;7.128;2023-02-28T02:34:24;4.77;;;3.70;;
12151;SDS011;6139;51.274;7.128;2023-02-28T02:35:34;4.90;;;4.27;;
12151;SDS011;6139;51.274;7.128;2023-02-28T02:36:45;5.30;;;3.83;;
12151;SDS011;6139;51.274;7.128;2023-02-28T02:37:50;6.10;;;4.10;;
12151;SDS011;6139;51.274;7.128;2023-02-28T02:38:57;5.70;;;3.83;;
12151;SDS011;6139;51.274;7.128;2023-02-28T02:40:07;7.80;;;4.43;;
12151;SDS011;6139;51.274;7.128;2023-02-28T02:41:16;7.23;;;3.97;;
12151;SDS011;6139;51.274;7.128;2023-02-28T02:42:23;5.87;;;3.67;;
12151;SDS011;6139;51.274;7.128;2023-02-28T02:43:29;5.43;;;3.60;;
12151;SDS011;6139;51.274;7.128;2023-02-28T02:44:34;5.70;;;3.70;;
12151;SDS011;6139;51.274;7.128;2023-02-28T02:45:42;4.50;;;3.87;;
12151;SDS011;6139;51.274;7.128;2023-02-28T02:46:46;4.37;;;3.40;;
12151;SDS011;6139;51.274;7.128;2023-02-28T02:47:50;6.37;;;3.80;;
12151;SDS011;6139;51.274;7.128;2023-02-28T02:48:52;4.17;;;3.70;;
12151;SDS011;6139;51.274;7.128;2023-02-28T02:49:59;6.40;;;3.63;;
12151;SDS011;6139;51.274;7.128;2023-02-28T02:51:07;5.77;;;3.60;;
12151;SDS011;6139;51.274;7.128;2023-02-28T02:52:15;5.87;;;3.80;;
12151;SDS011;6139;51.274;7.128;2023-02-28T02:53:21;6.63;;;3.50;;
12151;SDS011;6139;51.274;7.128;2023-02-28T02:54:28;3.77;;;3.33;;
12151;SDS011;6139;51.274;7.128;2023-02-28T02:55:33;5.17;;;3.50;;
12151;SDS011;6139;51.274;7.128;2023-02-28T02:56:40;5.63;;;3.43;;
12151;SDS011;6139;51.274;7.128;2023-02-28T02:57:45;3.77;;;3.37;;
12151;SDS011;6139;51.274;7.128;2023-02-28T02:58:49;6.07;;;3.17;;
12151;SDS011;6139;51.274;7.128;2023-02-28T02:59:53;4.33;;;2.97;;
12151;SDS011;6139;51.274;7.128;2023-02-28T03:00:58;4.17;;;3.47;;
12151;SDS011;6139;51.274;7.128;2023-02-28T03:02:02;4.03;;;3.20;;
12151;SDS011;6139;51.274;7.128;2023-02-28T03:03:07;4.80;;;3.23;;
12151;SDS011;6139;51.274;7.128;2023-02-28T03:04:12;5.60;;;3.23;;
12151;SDS011;6139;51.274;7.128;2023-02-28T03:05:20;5.10;;;3.50;;
12151;SDS011;6139;51.274;7.128;2023-02-28T03:06:26;4.27;;;2.93;;
12151;SDS011;6139;51.274;7.128;2023-02-28T03:07:27;4.63;;;3.00;;
12151;SDS011;6139;51.274;7.128;2023-02-28T03:08:33;5.20;;;3.63;;
12151;SDS011;6139;51.274;7.128;2023-02-28T03:09:37;3.87;;;3.07;;
12151;SDS011;6139;51.274;7.128;2023-02-28T03:10:41;5.37;;;3.10;;
12151;SDS011;6139;51.274;7.128;2023-02-28T03:11:43;4.23;;;3.40;;
12151;SDS011;6139;51.274;7.128;2023-02-28T03:12:48;4.63;;;3.30;;
12151;SDS011;6139;51.274;7.128;2023-02-28T03:14:01;4.10;;;3.10;;
12151;SDS011;6139;51.274;7.128;2023-02-28T03:15:16;4.63;;;3.40;;
12151;SDS011;6139;51.274;7.128;2023-02-28T03:16:28;4.03;;;2.83;;
12151;SDS011;6139;51.274;7.128;2023-02-28T03:17:38;4.00;;;3.10;;
12151;SDS011;6139;51.274;7.128;2023-02-28T03:18:53;5.23;;;3.23;;
12151;SDS011;6139;51.274;7.128;2023-02-28T03:20:04;3.93;;;3.23;;
12151;SDS011;6139;51.274;7.128;2023-02-28T03:21:13;5.37;;;3.30;;
12151;SDS011;6139;51.274;7.128;2023-02-28T03:23:52;3.63;;;3.20;;
12151;SDS011;6139;51.274;7.128;2023-02-28T03:25:04;4.37;;;2.90;;
12151;SDS011;6139;51.274;7.128;2023-02-28T03:26:11;4.33;;;3.10;;
12151;SDS011;6139;51.274;7.128;2023-02-28T03:27:21;3.43;;;2.80;;
12151;SDS011;6139;51.274;7.128;2023-02-28T03:28:29;4.00;;;2.97;;
12151;SDS011;6139;51.274;7.128;2023-02-28T03:29:37;3.57;;;2.97;;
12151;SDS011;6139;51.274;7.128;2023-02-28T03:30:45;5.47;;;3.40;;
12151;SDS011;6139;51.274;7.128;2023-02-28T03:31:54;3.87;;;2.87;;
12151;SDS011;6139;51.274;7.128;2023-02-28T03:33:02;3.83;;;2.70;;
12151;SDS011;6139;51.274;7.128;2023-02-28T03:34:08;3.80;;;3.00;;
12151;SDS011;6139;51.274;7.128;2023-02-28T03:35:16;3.30;;;2.90;;
12151;SDS011;6139;51.274;7.128;2023-02-28T03:36:24;4.53;;;3.10;;
12151;SDS011;6139;51.274;7.128;2023-02-28T03:37:28;3.93;;;3.20;;
12151;SDS011;6139;51.274;7.128;2023-02-28T03:38:35;5.03;;;3.10;;
12151;SDS011;6139;51.274;7.128;2023-02-28T03:39:40;3.60;;;2.90;;
12151;SDS011;6139;51.274;7.128;2023-02-28T03:40:48;4.13;;;3.20;;
12151;SDS011;6139;51.274;7.128;2023-02-28T03:41:52;5.67;;;3.23;;
12151;SDS011;6139;51.274;7.128;2023-02-28T03:42:59;4.83;;;2.90;;
12151;SDS011;6139;51.274;7.128;2023-02-28T03:44:05;4.53;;;2.97;;
12151;SDS011;6139;51.274;7.128;2023-02-28T03:45:16;5.30;;;2.93;;
12151;SDS011;6139;51.274;7.128;2023-02-28T03:46:20;4.40;;;2.80;;
12151;SDS011;6139;51.274;7.128;2023-02-28T03:47:26;4.97;;;3.50;;
12151;SDS011;6139;51.274;7.128;2023-02-28T03:48:31;3.60;;;2.77;;
12151;SDS011;6139;51.274;7.128;2023-02-28T03:49:39;6.63;;;2.87;;
12151;SDS011;6139;51.274;7.128;2023-02-28T03:50:46;4.03;;;2.60;;
12151;SDS011;6139;51.274;7.128;2023-02-28T03:51:52;3.60;;;3.03;;
12151;SDS011;6139;51.274;7.128;2023-02-28T03:52:55;6.07;;;3.13;;
12151;SDS011;6139;51.274;7.128;2023-02-28T03:54:02;3.63;;;2.87;;
12151;SDS011;6139;51.274;7.128;2023-02-28T03:55:08;4.33;;;2.80;;
12151;SDS011;6139;51.274;7.128;2023-02-28T03:56:14;4.30;;;2.90;;
12151;SDS011;6139;51.274;7.128;2023-02-28T03:57:27;3.47;;;2.93;;
12151;SDS011;6139;51.274;7.128;2023-02-28T03:58:36;5.20;;;3.00;;
12151;SDS011;6139;51.274;7.128;2023-02-28T03:59:43;3.70;;;2.80;;
12151;SDS011;6139;51.274;7.128;2023-02-28T04:00:49;3.37;;;2.77;;
12151;SDS011;6139;51.274;7.128;2023-02-28T04:01:55;4.77;;;2.90;;
12151;SDS011;6139;51.274;7.128;2023-02-28T04:02:59;4.20;;;2.60;;
12151;SDS011;6139;51.274;7.128;2023-02-28T04:04:00;4.63;;;2.87;;
12151;SDS011;6139;51.274;7.128;2023-02-28T04:05:03;2.97;;;2.50;;
12151;SDS011;6139;51.274;7.128;2023-02-28T04:06:04;4.67;;;3.03;;
12151;SDS011;6139;51.274;7.128;2023-02-28T04:07:10;3.97;;;2.80;;
12151;SDS011;6139;51.274;7.128;2023-02-28T04:08:12;3.87;;;3.00;;
12151;SDS011;6139;51.274;7.128;2023-02-28T04:09:14;3.37;;;2.87;;
12151;SDS011;6139;51.274;7.128;2023-02-28T04:10:15;4.80;;;3.10;;
12151;SDS011;6139;51.274;7.128;2023-02-28T04:11:18;4.43;;;3.27;;
12151;SDS011;6139;51.274;7.128;2023-02-28T04:12:22;4.57;;;2.90;;
12151;SDS011;6139;51.274;7.128;2023-02-28T04:13:25;3.73;;;2.40;;
12151;SDS011;6139;51.274;7.128;2023-02-28T04:14:25;5.23;;;2.97;;
12151;SDS011;6139;51.274;7.128;2023-02-28T04:15:27;3.47;;;2.87;;
12151;SDS011;6139;51.274;7.128;2023-02-28T04:16:28;3.30;;;2.50;;
12151;SDS011;6139;51.274;7.128;2023-02-28T04:17:30;4.40;;;3.20;;
12151;SDS011;6139;51.274;7.128;2023-02-28T04:18:31;4.00;;;3.00;;
12151;SDS011;6139;51.274;7.128;2023-02-28T04:19:33;4.87;;;2.90;;
12151;SDS011;6139;51.274;7.128;2023-02-28T04:20:34;4.67;;;2.87;;
12151;SDS011;6139;51.274;7.128;2023-02-28T04:21:37;3.30;;;2.57;;
12151;SDS011;6139;51.274;7.128;2023-02-28T04:22:41;4.03;;;2.97;;
12151;SDS011;6139;51.274;7.128;2023-02-28T04:23:43;2.97;;;2.60;;
12151;SDS011;6139;51.274;7.128;2023-02-28T04:24:44;3.37;;;2.63;;
12151;SDS011;6139;51.274;7.128;2023-02-28T04:25:46;3.30;;;2.60;;
12151;SDS011;6139;51.274;7.128;2023-02-28T04:26:47;2.97;;;2.67;;
12151;SDS011;6139;51.274;7.128;2023-02-28T04:27:50;4.77;;;2.70;;
12151;SDS011;6139;51.274;7.128;2023-02-28T04:28:51;3.17;;;2.60;;
12151;SDS011;6139;51.274;7.128;2023-02-28T04:29:53;3.67;;;3.13;;
12151;SDS011;6139;51.274;7.128;2023-02-28T04:30:55;5.53;;;2.97;;
12151;SDS011;6139;51.274;7.128;2023-02-28T04:31:58;3.53;;;2.67;;
12151;SDS011;6139;51.274;7.128;2023-02-28T04:33:01;4.93;;;3.20;;
12151;SDS011;6139;51.274;7.128;2023-02-28T04:34:02;3.13;;;2.83;;
12151;SDS011;6139;51.274;7.128;2023-02-28T04:35:04;4.93;;;3.00;;
12151;SDS011;6139;51.274;7.128;2023-02-28T04:36:06;6.10;;;2.87;;
12151;SDS011;6139;51.274;7.128;2023-02-28T04:37:09;3.73;;;2.73;;
12151;SDS011;6139;51.274;7.128;2023-02-28T04:38:12;4.07;;;2.87;;
12151;SDS011;6139;51.274;7.128;2023-02-28T04:39:13;4.17;;;2.43;;
12151;SDS011;6139;51.274;7.128;2023-02-28T04:40:16;3.97;;;3.00;;
12151;SDS011;6139;51.274;7.128;2023-02-28T04:41:17;5.33;;;3.00;;
12151;SDS011;6139;51.274;7.128;2023-02-28T04:42:19;4.00;;;3.17;;
12151;SDS011;6139;51.274;7.128;2023-02-28T04:43:20;4.87;;;2.90;;
12151;SDS011;6139;51.274;7.128;2023-02-28T04:44:22;3.07;;;2.77;;
12151;SDS011;6139;51.274;7.128;2023-02-28T04:45:23;4.00;;;3.33;;
12151;SDS011;6139;51.274;7.128;2023-02-28T04:46:25;4.90;;;3.00;;
12151;SDS011;6139;51.274;7.128;2023-02-28T04:47:26;4.20;;;2.93;;
12151;SDS011;6139;51.274;7.128;2023-02-28T04:48:28;4.57;;;3.00;;
12151;SDS011;6139;51.274;7.128;2023-02-28T04:49:31;4.00;;;2.93;;
12151;SDS011;6139;51.274;7.128;2023-02-28T04:50:33;3.00;;;2.70;;
12151;SDS011;6139;51.274;7.128;2023-02-28T04:51:34;4.13;;;3.47;;
12151;SDS011;6139;51.274;7.128;2023-02-28T04:52:36;6.77;;;3.23;;
12151;SDS011;6139;51.274;7.128;2023-02-28T04:53:39;3.57;;;3.20;;
12151;SDS011;6139;51.274;7.128;2023-02-28T04:54:42;3.83;;;3.03;;
12151;SDS011;6139;51.274;7.128;2023-02-28T04:55:43;3.10;;;2.80;;
12151;SDS011;6139;51.274;7.128;2023-02-28T04:56:46;5.57;;;2.73;;
12151;SDS011;6139;51.274;7.128;2023-02-28T04:57:48;5.23;;;3.20;;
12151;SDS011;6139;51.274;7.128;2023-02-28T04:58:50;3.10;;;2.73;;
12151;SDS011;6139;51.274;7.128;2023-02-28T04:59:53;4.23;;;2.90;;
12151;SDS011;6139;51.274;7.128;2023-02-28T05:01:00;3.80;;;2.90;;
12151;SDS011;6139;51.274;7.128;2023-02-28T05:02:02;3.77;;;3.07;;
12151;SDS011;6139;51.274;7.128;2023-02-28T05:03:07;3.20;;;2.90;;
12151;SDS011;6139;51.274;7.128;2023-02-28T05:04:08;4.07;;;3.13;;
12151;SDS011;6139;51.274;7.128;2023-02-28T05:05:10;3.97;;;2.80;;
12151;SDS011;6139;51.274;7.128;2023-02-28T05:06:16;3.93;;;3.03;;
12151;SDS011;6139;51.274;7.128;2023-02-28T05:07:20;3.33;;;3.00;;
12151;SDS011;6139;51.274;7.128;2023-02-28T05:08:21;4.43;;;3.20;;
12151;SDS011;6139;51.274;7.128;2023-02-28T05:09:24;4.77;;;3.00;;
12151;SDS011;6139;51.274;7.128;2023-02-28T05:10:25;4.00;;;3.00;;
12151;SDS011;6139;51.274;7.128;2023-02-28T05:11:28;5.60;;;3.10;;
12151;SDS011;6139;51.274;7.128;2023-02-28T05:12:34;4.37;;;3.00;;
12151;SDS011;6139;51.274;7.128;2023-02-28T05:13:35;3.17;;;2.87;;
12151;SDS011;6139;51.274;7.128;2023-02-28T05:14:37;3.87;;;2.80;;
12151;SDS011;6139;51.274;7.128;2023-02-28T05:15:38;5.77;;;3.13;;
12151;SDS011;6139;51.274;7.128;2023-02-28T05:16:40;3.73;;;2.80;;
12151;SDS011;6139;51.274;7.128;2023-02-28T05:17:42;4.00;;;3.00;;
12151;SDS011;6139;51.274;7.128;2023-02-28T05:18:44;3.73;;;2.87;;
12151;SDS011;6139;51.274;7.128;2023-02-28T05:19:45;3.57;;;2.53;;
12151;SDS011;6139;51.274;7.128;2023-02-28T05:20:47;5.90;;;3.00;;
12151;SDS011;6139;51.274;7.128;2023-02-28T05:21:49;4.00;;;3.10;;
12151;SDS011;6139;51.274;7.128;2023-02-28T05:22:52;3.73;;;3.07;;
12151;SDS011;6139;51.274;7.128;2023-02-28T05:23:53;3.80;;;3.20;;
12151;SDS011;6139;51.274;7.128;2023-02-28T05:24:57;3.80;;;2.90;;
12151;SDS011;6139;51.274;7.128;2023-02-28T05:25:58;4.10;;;2.97;;
12151;SDS011;6139;51.274;7.128;2023-02-28T05:27:00;3.67;;;3.10;;
12151;SDS011;6139;51.274;7.128;2023-02-28T05:28:02;3.53;;;3.00;;
12151;SDS011;6139;51.274;7.128;2023-02-28T05:29:04;5.20;;;3.03;;
12151;SDS011;6139;51.274;7.128;2023-02-28T05:30:06;5.50;;;3.03;;
12151;SDS011;6139;51.274;7.128;2023-02-28T05:31:10;3.87;;;2.93;;
12151;SDS011;6139;51.274;7.128;2023-02-28T05:32:12;4.57;;;3.10;;
12151;SDS011;6139;51.274;7.128;2023-02-28T05:33:14;3.03;;;2.73;;
12151;SDS011;6139;51.274;7.128;2023-02-28T05:34:15;4.53;;;2.97;;
12151;SDS011;6139;51.274;7.128;2023-02-28T05:35:17;3.83;;;3.23;;
12151;SDS011;6139;51.274;7.128;2023-02-28T05:36:18;3.83;;;3.10;;
12151;SDS011;6139;51.274;7.128;2023-02-28T05:37:20;4.50;;;2.87;;
12151;SDS011;6139;51.274;7.128;2023-02-28T05:38:21;4.73;;;3.23;;
12151;SDS011;6139;51.274;7.128;2023-02-28T05:39:23;3.83;;;3.00;;
12151;SDS011;6139;51.274;7.128;2023-02-28T05:40:25;4.50;;;3.10;;
12151;SDS011;6139;51.274;7.128;2023-02-28T05:41:28;5.50;;;3.07;;
12151;SDS011;6139;51.274;7.128;2023-02-28T05:42:28;3.40;;;2.80;;
12151;SDS011;6139;51.274;7.128;2023-02-28T05:43:30;4.73;;;3.10;;
12151;SDS011;6139;51.274;7.128;2023-02-28T05:44:31;5.80;;;3.20;;
12151;SDS011;6139;51.274;7.128;2023-02-28T05:45:33;6.10;;;3.40;;
12151;SDS011;6139;51.274;7.128;2023-02-28T05:46:34;4.70;;;3.00;;
12151;SDS011;6139;51.274;7.128;2023-02-28T05:47:36;3.20;;;2.90;;
12151;SDS011;6139;51.274;7.128;2023-02-28T05:48:38;5.43;;;3.57;;
12151;SDS011;6139;51.274;7.128;2023-02-28T05:49:41;5.23;;;3.53;;
12151;SDS011;6139;51.274;7.128;2023-02-28T05:50:42;6.37;;;3.30;;
12151;SDS011;6139;51.274;7.128;2023-02-28T05:51:46;4.03;;;2.87;;
12151;SDS011;6139;51.274;7.128;2023-02-28T05:52:48;4.63;;;3.33;;
12151;SDS011;6139;51.274;7.128;2023-02-28T05:53:50;3.40;;;3.03;;
12151;SDS011;6139;51.274;7.128;2023-02-28T05:54:52;3.87;;;3.47;;
12151;SDS011;6139;51.274;7.128;2023-02-28T05:55:54;3.97;;;3.20;;
12151;SDS011;6139;51.274;7.128;2023-02-28T05:56:56;3.87;;;3.47;;
12151;SDS011;6139;51.274;7.128;2023-02-28T05:57:57;4.83;;;3.50;;
12151;SDS011;6139;51.274;7.128;2023-02-28T05:58:59;4.93;;;3.37;;
12151;SDS011;6139;51.274;7.128;2023-02-28T06:00:00;5.30;;;3.63;;
12151;SDS011;6139;51.274;7.128;2023-02-28T06:01:19;4.30;;;3.20;;
12151;SDS011;6139;51.274;7.128;2023-02-28T06:02:22;4.83;;;3.30;;
12151;SDS011;6139;51.274;7.128;2023-02-28T06:03:25;4.13;;;3.20;;
12151;SDS011;6139;51.274;7.128;2023-02-28T06:04:26;4.43;;;3.40;;
12151;SDS011;6139;51.274;7.128;2023-02-28T06:05:28;5.57;;;2.50;;
12151;SDS011;6139;51.274;7.128;2023-02-28T06:06:29;5.00;;;2.80;;
12151;SDS011;6139;51.274;7.128;2023-02-28T06:07:31;3.80;;;3.10;;
12151;SDS011;6139;51.274;7.128;2023-02-28T06:08:32;3.43;;;2.43;;
12151;SDS011;6139;51.274;7.128;2023-02-28T06:09:34;3.77;;;2.80;;
12151;SDS011;6139;51.274;7.128;2023-02-28T06:10:35;4.30;;;2.93;;
12151;SDS011;6139;51.274;7.128;2023-02-28T06:11:38;3.30;;;3.00;;
12151;SDS011;6139;51.274;7.128;2023-02-28T06:12:41;3.27;;;2.50;;
12151;SDS011;6139;51.274;7.128;2023-02-28T06:13:42;4.00;;;2.63;;
12151;SDS011;6139;51.274;7.128;2023-02-28T06:14:44;2.70;;;2.50;;
12151;SDS011;6139;51.274;7.128;2023-02-28T06:15:45;3.07;;;2.60;;
12151;SDS011;6139;51.274;7.128;2023-02-28T06:16:46;4.27;;;2.57;;
12151;SDS011;6139;51.274;7.128;2023-02-28T06:17:47;3.40;;;2.57;;
12151;SDS011;6139;51.274;7.128;2023-02-28T06:18:49;2.80;;;2.50;;
12151;SDS011;6139;51.274;7.128;2023-02-28T06:19:50;3.00;;;2.70;;
12151;SDS011;6139;51.274;7.128;2023-02-28T06:20:53;4.60;;;2.90;;
12151;SDS011;6139;51.274;7.128;2023-02-28T06:21:54;3.00;;;2.33;;
12151;SDS011;6139;51.274;7.128;2023-02-28T06:22:57;2.97;;;2.60;;
12151;SDS011;6139;51.274;7.128;2023-02-28T06:23:59;4.10;;;2.77;;
12151;SDS011;6139;51.274;7.128;2023-02-28T06:25:01;3.93;;;2.70;;
12151;SDS011;6139;51.274;7.128;2023-02-28T06:26:02;7.47;;;2.87;;
12151;SDS011;6139;51.274;7.128;2023-02-28T06:27:05;2.90;;;2.70;;
12151;SDS011;6139;51.274;7.128;2023-02-28T06:28:07;3.17;;;2.77;;
12151;SDS011;6139;51.274;7.128;2023-02-28T06:29:08;4.53;;;2.73;;
12151;SDS011;6139;51.274;7.128;2023-02-28T06:30:11;6.50;;;2.90;;
12151;SDS011;6139;51.274;7.128;2023-02-28T06:31:13;4.50;;;2.97;;
12151;SDS011;6139;51.274;7.128;2023-02-28T06:32:16;4.47;;;2.80;;
12151;SDS011;6139;51.274;7.128;2023-02-28T06:33:17;3.10;;;2.80;;
12151;SDS011;6139;51.274;7.128;2023-02-28T06:34:19;3.10;;;2.80;;
12151;SDS011;6139;51.274;7.128;2023-02-28T06:35:20;2.87;;;2.43;;